St Pierre — FIDX — position and weather

sailwx.info

Track history (hours):
 
Tides and Currents Weather Stations Pressure Air Temp Water Temp Dewpoint Dewpoint Depression Visibility Wind Speed Wind Dir Waves Ship Positions

St Pierre

Last reported at 2015-Mar-21 06:11 UTC. Time now 2015-Mar-28 12:17 UTC.
Position N 47°17' W 002°12'.

Length 84 m; draft 6.2 m.

Type: Cargo ship. MMSI: 228024800.

Date/timePositionNaut miles runAvg speedWind from/ knotsBaromVisibWave heightAir tempDewpointWater temp
2015-Mar-21 06:11N 47°17' W 002°12'0 0.0
2015-Mar-21 04:23N 47°17' W 002°12'1 0.1
2015-Mar-20 15:15N 47°17' W 002°11'6 0.5
2015-Mar-20 03:11N 47°18' W 002°02'18 3.6
2015-Mar-19 22:16N 47°06' W 002°21'0 0.1
2015-Mar-19 21:27N 47°06' W 002°21'7 7.6
2015-Mar-19 20:31N 47°12' W 002°17'1412.7
2015-Mar-19 19:27N 47°17' W 001°59'1112.3
2015-Mar-19 18:32N 47°12' W 001°44'4 4.0
2015-Mar-19 17:33N 47°12' W 001°38'30 4.1
2015-Mar-19 10:17N 47°06' W 002°21'0 0.1
2015-Mar-19 09:08N 47°06' W 002°21'5 8.8
2015-Mar-19 08:32N 47°11' W 002°18'1513.3
2015-Mar-19 07:24N 47°17' W 001°58'1213.5
2015-Mar-19 06:31N 47°12' W 001°42'3 3.0
2015-Mar-19 05:33N 47°12' W 001°38'0 0.0
2015-Mar-19 04:33N 47°12' W 001°38'0 0.0
2015-Mar-19 03:32N 47°12' W 001°38'0 0.0
2015-Mar-19 02:29N 47°12' W 001°38'0 0.0
2015-Mar-19 01:32N 47°12' W 001°38'0 0.0
2015-Mar-19 00:32N 47°12' W 001°38'0 0.0
2015-Mar-18 23:33N 47°12' W 001°38'0 0.0
2015-Mar-18 21:33N 47°12' W 001°38'1 0.1
2015-Mar-18 07:26N 47°12' W 001°37'0 0.0
2015-Mar-18 06:34N 47°12' W 001°37'0 0.0
2015-Mar-18 05:20N 47°12' W 001°37'0 0.0
2015-Mar-18 04:33N 47°12' W 001°37'0 0.0
2015-Mar-18 03:34N 47°12' W 001°37'0 0.0
2015-Mar-18 02:33N 47°12' W 001°37'0 0.0
2015-Mar-18 01:33N 47°12' W 001°37'0 0.0
2015-Mar-18 00:33N 47°12' W 001°37'0 0.0
2015-Mar-17 23:33N 47°12' W 001°37'0 0.0
2015-Mar-17 22:31N 47°12' W 001°37'0 0.0
2015-Mar-17 21:15N 47°12' W 001°37'0 0.0
2015-Mar-17 20:18N 47°12' W 001°37'0 0.0
2015-Mar-17 08:04N 47°12' W 001°37'0 0.0
2015-Mar-17 06:03N 47°12' W 001°37'0 0.0
2015-Mar-17 00:17N 47°12' W 001°37'0 0.0
2015-Mar-16 21:24N 47°12' W 001°37'0 0.0
2015-Mar-16 09:12N 47°12' W 001°37'0 0.0
2015-Mar-16 04:32N 47°12' W 001°37'0 0.0
2015-Mar-16 03:24N 47°12' W 001°37'0 0.0
2015-Mar-15 00:14N 47°12' W 001°37'0 0.0
2015-Mar-14 05:09N 47°12' W 001°37'0 0.0
2015-Mar-14 04:11N 47°12' W 001°37'18 0.5
2015-Mar-12 18:33N 47°18' W 002°01'18 5.2
2015-Mar-12 15:03N 47°06' W 002°21'30 4.6
2015-Mar-12 08:29N 47°12' W 001°38'25 1.4
2015-Mar-11 14:31N 47°14' W 002°15'  
Track history (hours):
 
Tides and Currents Weather Stations Pressure Air Temp Water Temp Dewpoint Dewpoint Depression Visibility Wind Speed Wind Dir Waves Ship Positions

St Pierre

Last reported at 2015-Mar-21 06:11 UTC. Time now 2015-Mar-28 12:17 UTC.
Position N 47°17' W 002°12'.

Length 84 m; draft 6.2 m.

Type: Cargo ship. MMSI: 228024800.

Date/timePositionNaut miles runAvg speedWind from/ knotsBaromVisibWave heightAir tempDewpointWater temp
2015-Mar-21 06:11N 47°17' W 002°12'0 0.0
2015-Mar-21 04:23N 47°17' W 002°12'1 0.1
2015-Mar-20 15:15N 47°17' W 002°11'6 0.5
2015-Mar-20 03:11N 47°18' W 002°02'18 3.6
2015-Mar-19 22:16N 47°06' W 002°21'0 0.1
2015-Mar-19 21:27N 47°06' W 002°21'7 7.6
2015-Mar-19 20:31N 47°12' W 002°17'1412.7
2015-Mar-19 19:27N 47°17' W 001°59'1112.3
2015-Mar-19 18:32N 47°12' W 001°44'4 4.0
2015-Mar-19 17:33N 47°12' W 001°38'30 4.1
2015-Mar-19 10:17N 47°06' W 002°21'0 0.1
2015-Mar-19 09:08N 47°06' W 002°21'5 8.8
2015-Mar-19 08:32N 47°11' W 002°18'1513.3
2015-Mar-19 07:24N 47°17' W 001°58'1213.5
2015-Mar-19 06:31N 47°12' W 001°42'3 3.0
2015-Mar-19 05:33N 47°12' W 001°38'0 0.0
2015-Mar-19 04:33N 47°12' W 001°38'0 0.0
2015-Mar-19 03:32N 47°12' W 001°38'0 0.0
2015-Mar-19 02:29N 47°12' W 001°38'0 0.0
2015-Mar-19 01:32N 47°12' W 001°38'0 0.0
2015-Mar-19 00:32N 47°12' W 001°38'0 0.0
2015-Mar-18 23:33N 47°12' W 001°38'0 0.0
2015-Mar-18 21:33N 47°12' W 001°38'1 0.1
2015-Mar-18 07:26N 47°12' W 001°37'0 0.0
2015-Mar-18 06:34N 47°12' W 001°37'0 0.0
2015-Mar-18 05:20N 47°12' W 001°37'0 0.0
2015-Mar-18 04:33N 47°12' W 001°37'0 0.0
2015-Mar-18 03:34N 47°12' W 001°37'0 0.0
2015-Mar-18 02:33N 47°12' W 001°37'0 0.0
2015-Mar-18 01:33N 47°12' W 001°37'0 0.0
2015-Mar-18 00:33N 47°12' W 001°37'0 0.0
2015-Mar-17 23:33N 47°12' W 001°37'0 0.0
2015-Mar-17 22:31N 47°12' W 001°37'0 0.0
2015-Mar-17 21:15N 47°12' W 001°37'0 0.0
2015-Mar-17 20:18N 47°12' W 001°37'0 0.0
2015-Mar-17 08:04N 47°12' W 001°37'0 0.0
2015-Mar-17 06:03N 47°12' W 001°37'0 0.0
2015-Mar-17 00:17N 47°12' W 001°37'0 0.0
2015-Mar-16 21:24N 47°12' W 001°37'0 0.0
2015-Mar-16 09:12N 47°12' W 001°37'0 0.0
2015-Mar-16 04:32N 47°12' W 001°37'0 0.0
2015-Mar-16 03:24N 47°12' W 001°37'0 0.0
2015-Mar-15 00:14N 47°12' W 001°37'0 0.0
2015-Mar-14 05:09N 47°12' W 001°37'0 0.0
2015-Mar-14 04:11N 47°12' W 001°37'18 0.5
2015-Mar-12 18:33N 47°18' W 002°01'18 5.2
2015-Mar-12 15:03N 47°06' W 002°21'30 4.6
2015-Mar-12 08:29N 47°12' W 001°38'25 1.4
2015-Mar-11 14:31N 47°14' W 002°15'  

Dump ship's entire track history